createdAt,value
2019-04-29T00:02:07.189Z,6.70
2019-04-29T00:04:36.800Z,6.70
2019-04-29T00:07:06.379Z,6.70
2019-04-29T00:09:36.010Z,6.70
2019-04-29T00:12:05.722Z,6.70
2019-04-29T00:14:37.790Z,6.70
2019-04-29T00:17:09.548Z,6.60
2019-04-29T00:19:40.707Z,6.60
2019-04-29T00:22:10.300Z,6.60
2019-04-29T00:24:39.908Z,6.50
2019-04-29T00:27:09.515Z,6.50
2019-04-29T00:29:39.019Z,6.50
2019-04-29T00:32:09.121Z,6.40
2019-04-29T00:34:38.751Z,6.40
2019-04-29T00:37:28.426Z,6.40
2019-04-29T00:40:15.441Z,6.40
2019-04-29T00:43:01.321Z,6.40
2019-04-29T00:45:30.937Z,6.40
2019-04-29T00:48:00.202Z,6.40
2019-04-29T00:50:29.843Z,6.40
2019-04-29T00:52:59.356Z,6.40
2019-04-29T00:55:30.266Z,6.40
2019-04-29T00:57:59.532Z,6.30
2019-04-29T01:00:33.749Z,6.30
2019-04-29T01:03:03.282Z,6.30
2019-04-29T01:05:32.818Z,6.20
2019-04-29T01:08:02.423Z,6.20
2019-04-29T01:10:31.756Z,6.10
2019-04-29T01:13:01.332Z,6.10
2019-04-29T01:15:30.602Z,6.10
2019-04-29T01:18:00.174Z,6.00
2019-04-29T01:20:29.748Z,6.00
2019-04-29T01:22:59.348Z,6.00
2019-04-29T01:25:28.614Z,6.00
2019-04-29T01:28:03.289Z,6.00
2019-04-29T01:30:55.513Z,5.90
2019-04-29T01:33:25.124Z,5.90
2019-04-29T01:36:05.075Z,5.90
2019-04-29T01:38:34.274Z,5.80
2019-04-29T01:41:05.249Z,5.70
2019-04-29T01:43:52.501Z,5.70
2019-04-29T01:46:21.764Z,5.60
2019-04-29T01:48:51.027Z,5.60
2019-04-29T01:51:20.290Z,5.60
2019-04-29T01:53:49.836Z,5.50
2019-04-29T01:56:19.100Z,5.50
2019-04-29T01:58:49.056Z,5.50
2019-04-29T02:01:18.660Z,5.50
2019-04-29T02:03:48.272Z,5.40
2019-04-29T02:06:17.979Z,5.40
2019-04-29T02:08:48.099Z,5.40
2019-04-29T02:11:17.358Z,5.40
2019-04-29T02:13:46.618Z,5.30
2019-04-29T02:16:16.121Z,5.30
2019-04-29T02:18:45.628Z,5.30
2019-04-29T02:21:15.138Z,5.30
2019-04-29T02:23:48.729Z,5.30
2019-04-29T02:26:18.325Z,5.30
2019-04-29T02:28:47.932Z,5.20
2019-04-29T02:31:35.061Z,5.20
2019-04-29T02:34:04.907Z,5.20
2019-04-29T02:36:34.171Z,5.20
2019-04-29T02:39:18.175Z,5.10
2019-04-29T02:41:49.153Z,5.10
2019-04-29T02:44:18.472Z,5.20
2019-04-29T02:46:47.743Z,5.10
2019-04-29T02:49:17.002Z,5.10
2019-04-29T02:51:50.860Z,5.10
2019-04-29T02:54:20.563Z,5.10
2019-04-29T02:57:03.280Z,5.10
2019-04-29T02:59:52.610Z,5.00
2019-04-29T03:02:23.815Z,5.00
2019-04-29T03:05:12.674Z,5.00
2019-04-29T03:07:42.668Z,4.90
2019-04-29T03:10:12.685Z,4.90
2019-04-29T03:12:42.293Z,4.90
2019-04-29T03:15:12.457Z,4.80
2019-04-29T03:17:42.268Z,4.80
2019-04-29T03:20:22.141Z,4.80
2019-04-29T03:22:53.318Z,4.80
2019-04-29T03:25:22.825Z,4.70
2019-04-29T03:27:52.439Z,4.70
2019-04-29T03:30:21.776Z,4.70
2019-04-29T03:32:51.047Z,4.70
2019-04-29T03:35:20.355Z,4.70
2019-04-29T03:37:49.624Z,4.60
2019-04-29T03:40:18.884Z,4.60
2019-04-29T03:42:48.447Z,4.60
2019-04-29T03:45:17.712Z,4.60
2019-04-29T03:47:46.975Z,4.60
2019-04-29T03:50:16.303Z,4.60
2019-04-29T03:52:45.568Z,4.60
2019-04-29T03:55:15.154Z,4.60
2019-04-29T03:57:44.417Z,4.60
2019-04-29T04:00:17.432Z,4.60
2019-04-29T04:02:48.692Z,4.60
2019-04-29T04:05:35.374Z,4.60
2019-04-29T04:08:06.401Z,4.60
2019-04-29T04:10:35.659Z,4.60
2019-04-29T04:13:05.173Z,4.60
2019-04-29T04:15:34.743Z,4.60
2019-04-29T04:18:05.963Z,4.60
2019-04-29T04:20:35.598Z,4.70
2019-04-29T04:23:04.948Z,4.70
2019-04-29T04:25:34.517Z,4.70
2019-04-29T04:28:03.796Z,4.70
2019-04-29T04:30:33.319Z,4.70
2019-04-29T04:33:02.924Z,4.70
2019-04-29T04:35:32.184Z,4.70
2019-04-29T04:38:01.694Z,4.70
2019-04-29T04:40:33.211Z,4.70
2019-04-29T04:43:02.469Z,4.70
2019-04-29T04:45:31.734Z,4.70
2019-04-29T04:48:01.002Z,4.70
2019-04-29T04:50:30.585Z,4.70
2019-04-29T04:52:59.860Z,4.80
2019-04-29T04:55:30.830Z,4.80
2019-04-29T04:58:00.097Z,4.80
2019-04-29T05:00:30.998Z,4.90
2019-04-29T05:03:00.520Z,4.90
2019-04-29T05:05:29.850Z,5.00
2019-04-29T05:07:59.474Z,5.10
2019-04-29T05:10:28.903Z,5.20
2019-04-29T05:12:58.377Z,5.30
2019-04-29T05:15:51.815Z,5.40
2019-04-29T05:21:41.965Z,5.70
2019-04-29T05:24:11.227Z,5.90
2019-04-29T05:26:40.480Z,6.20
2019-04-29T05:29:09.744Z,6.20
2019-04-29T05:31:39.009Z,6.30
2019-04-29T05:34:08.269Z,6.40
2019-04-29T05:36:45.125Z,6.60
2019-04-29T05:39:16.030Z,6.60
2019-04-29T05:41:45.290Z,6.70
2019-04-29T05:44:22.283Z,6.80
2019-04-29T05:46:56.662Z,6.90
2019-04-29T05:49:27.562Z,6.80
2019-04-29T05:52:01.998Z,7.00
2019-04-29T05:54:32.104Z,7.00
2019-04-29T05:57:02.324Z,7.10
2019-04-29T05:59:31.596Z,7.10
2019-04-29T06:02:00.852Z,7.30
2019-04-29T06:04:30.128Z,7.50
2019-04-29T06:06:59.380Z,7.50
2019-04-29T06:09:28.638Z,7.40
2019-04-29T06:11:57.905Z,7.40
2019-04-29T06:14:27.163Z,7.60
2019-04-29T06:16:57.487Z,7.50
2019-04-29T06:19:27.398Z,7.70
2019-04-29T06:21:56.655Z,8.00
2019-04-29T06:24:25.912Z,8.20
2019-04-29T06:26:55.190Z,8.40
2019-04-29T06:29:24.474Z,8.20
2019-04-29T06:31:54.240Z,8.60
2019-04-29T06:34:23.840Z,8.50
2019-04-29T06:36:53.449Z,8.50
2019-04-29T06:39:22.972Z,8.50
2019-04-29T06:41:52.259Z,8.60
2019-04-29T06:44:21.527Z,8.70
2019-04-29T06:46:54.526Z,8.50
2019-04-29T06:49:22.088Z,8.50
2019-04-29T06:51:51.606Z,8.20
2019-04-29T06:54:20.885Z,8.50
2019-04-29T06:56:50.412Z,8.60
2019-04-29T06:59:19.695Z,8.60
2019-04-29T07:01:48.966Z,8.80
2019-04-29T07:04:18.249Z,9.00
2019-04-29T07:06:57.333Z,9.00
2019-04-29T07:09:18.812Z,9.50
2019-04-29T07:11:48.088Z,9.50
2019-04-29T07:14:17.359Z,9.50
2019-04-29T07:16:46.632Z,9.10
2019-04-29T07:19:15.905Z,9.20
2019-04-29T07:21:47.019Z,9.50
2019-04-29T07:24:16.170Z,9.50
2019-04-29T07:26:45.444Z,9.50
2019-04-29T07:29:14.731Z,9.70
2019-04-29T07:31:44.078Z,9.70
2019-04-29T07:34:13.515Z,9.90
2019-04-29T07:36:42.793Z,10.00
2019-04-29T07:39:12.067Z,10.10
2019-04-29T07:41:41.341Z,10.30
2019-04-29T07:44:13.604Z,10.30
2019-04-29T07:46:56.125Z,10.30
2019-04-29T07:49:17.183Z,10.10
2019-04-29T07:51:45.273Z,10.50
2019-04-29T07:54:15.863Z,10.50
2019-04-29T07:56:45.566Z,10.50
2019-04-29T07:59:14.861Z,10.60
2019-04-29T08:01:44.146Z,10.60
2019-04-29T08:04:13.420Z,10.70
2019-04-29T08:06:44.861Z,11.00
2019-04-29T08:09:14.199Z,11.20
2019-04-29T08:11:43.488Z,11.30
2019-04-29T08:14:13.196Z,11.20
2019-04-29T08:16:42.475Z,11.10
2019-04-29T08:19:11.757Z,11.50
2019-04-29T08:21:41.027Z,11.80
2019-04-29T08:24:11.586Z,12.10
2019-04-29T08:26:47.107Z,12.30
2019-04-29T08:29:12.303Z,12.50
2019-04-29T08:31:41.597Z,12.40
2019-04-29T08:34:10.876Z,12.50
2019-04-29T08:36:40.158Z,12.30
2019-04-29T08:39:09.855Z,12.50
2019-04-29T08:41:39.144Z,12.40
2019-04-29T08:44:16.431Z,12.40
2019-04-29T08:46:53.920Z,12.50
2019-04-29T08:49:23.203Z,12.50
2019-04-29T08:51:52.488Z,12.90
2019-04-29T08:54:21.761Z,12.90
2019-04-29T08:57:02.214Z,12.50
2019-04-29T08:59:24.590Z,12.30
2019-04-29T09:01:53.328Z,12.10
2019-04-29T09:04:22.598Z,12.20
2019-04-29T09:06:52.237Z,12.60
2019-04-29T09:09:29.106Z,12.80
2019-04-29T09:11:52.511Z,13.00
2019-04-29T09:14:22.075Z,13.10
2019-04-29T09:16:51.348Z,13.10
2019-04-29T09:19:20.997Z,13.20
2019-04-29T09:21:51.927Z,13.30
2019-04-29T09:24:21.531Z,13.20
2019-04-29T09:26:55.352Z,13.30
2019-04-29T09:29:31.442Z,13.60
2019-04-29T09:32:02.000Z,13.80
2019-04-29T09:34:31.447Z,13.70
2019-04-29T09:37:00.727Z,13.70
2019-04-29T09:39:42.327Z,14.00
2019-04-29T09:42:18.588Z,14.40
2019-04-29T09:44:49.500Z,14.20
2019-04-29T09:47:18.860Z,14.10
2019-04-29T09:49:48.432Z,14.20
2019-04-29T09:52:18.042Z,14.70
2019-04-29T09:54:47.646Z,14.90
2019-04-29T09:57:17.001Z,14.50
2019-04-29T09:59:47.916Z,14.70
2019-04-29T10:02:26.357Z,15.10
2019-04-29T10:05:07.273Z,15.30
2019-04-29T10:07:36.632Z,15.50
2019-04-29T10:10:09.259Z,15.20
2019-04-29T10:12:38.863Z,14.90
2019-04-29T10:15:10.360Z,15.00
2019-04-29T10:17:53.571Z,15.30
2019-04-29T10:20:23.162Z,15.60
2019-04-29T10:22:53.756Z,15.40
2019-04-29T10:25:24.305Z,15.50
2019-04-29T10:27:53.574Z,15.30
2019-04-29T10:30:26.857Z,15.20
2019-04-29T10:32:55.790Z,14.60
2019-04-29T10:35:25.398Z,14.60
2019-04-29T10:37:54.682Z,14.80
2019-04-29T10:40:45.988Z,15.20
2019-04-29T10:43:19.713Z,15.40
2019-04-29T10:45:59.877Z,15.80
2019-04-29T10:48:34.095Z,15.90
2019-04-29T10:51:05.012Z,16.10
2019-04-29T10:53:35.148Z,16.20
2019-04-29T10:56:05.729Z,16.00
2019-04-29T10:58:36.116Z,16.00
2019-04-29T11:01:32.776Z,16.50
2019-04-29T11:04:02.857Z,16.80
2019-04-29T11:06:35.982Z,16.60
2019-04-29T11:09:09.591Z,16.30
2019-04-29T11:11:40.293Z,15.90
2019-04-29T11:14:09.742Z,16.10
2019-04-29T11:16:46.537Z,16.00
2019-04-29T11:19:10.083Z,16.50
2019-04-29T11:21:39.530Z,16.70
2019-04-29T11:24:28.811Z,16.30
2019-04-29T11:27:11.269Z,16.10
2019-04-29T11:29:30.797Z,16.60
2019-04-29T11:32:01.782Z,16.80
2019-04-29T11:34:48.457Z,16.90
2019-04-29T11:37:19.572Z,17.30
2019-04-29T11:39:50.334Z,17.90
2019-04-29T11:42:20.026Z,18.10
2019-04-29T11:44:49.317Z,18.00
2019-04-29T11:47:20.915Z,17.40
2019-04-29T11:49:56.755Z,17.50
2019-04-29T11:52:28.101Z,17.60
2019-04-29T11:54:57.342Z,17.90
2019-04-29T11:57:40.748Z,18.10
2019-04-29T12:00:19.029Z,18.00
2019-04-29T12:02:50.274Z,18.10
2019-04-29T12:05:21.196Z,18.00
2019-04-29T12:07:50.817Z,18.10
2019-04-29T12:10:20.422Z,18.30
2019-04-29T12:12:50.221Z,18.20
2019-04-29T12:15:24.560Z,17.80
2019-04-29T12:17:58.113Z,17.80
2019-04-29T12:20:29.036Z,17.90
2019-04-29T12:22:58.309Z,18.10
2019-04-29T12:25:29.324Z,17.90
2019-04-29T12:28:01.702Z,17.80
2019-04-29T12:30:34.615Z,18.00
2019-04-29T12:33:07.270Z,18.20
2019-04-29T12:35:51.878Z,17.60
2019-04-29T12:38:39.797Z,16.90
2019-04-29T12:41:02.107Z,16.80
2019-04-29T12:43:35.594Z,17.40
2019-04-29T12:46:10.364Z,16.90
2019-04-29T12:48:39.838Z,17.00
2019-04-29T12:51:09.182Z,17.10
2019-04-29T12:53:38.453Z,17.50
2019-04-29T12:56:11.416Z,17.80
2019-04-29T12:58:39.559Z,17.50
2019-04-29T13:01:50.204Z,17.10
2019-04-29T13:04:15.942Z,17.30
2019-04-29T13:06:50.007Z,17.30
2019-04-29T13:09:30.157Z,17.50
2019-04-29T13:12:17.637Z,17.80
2019-04-29T13:14:33.279Z,17.90
2019-04-29T13:17:14.788Z,17.50
2019-04-29T13:20:02.403Z,17.60
2019-04-29T13:22:31.882Z,17.60
2019-04-29T13:25:01.165Z,17.40
2019-04-29T13:27:30.452Z,17.50
2019-04-29T13:29:59.750Z,17.70
2019-04-29T13:32:29.870Z,17.40
2019-04-29T13:35:05.223Z,17.10
2019-04-29T13:37:32.675Z,16.60
2019-04-29T13:40:01.954Z,16.70
2019-04-29T13:42:31.233Z,16.40
2019-04-29T13:45:07.754Z,16.40
2019-04-29T13:47:33.157Z,16.80
2019-04-29T13:50:18.064Z,16.80
2019-04-29T13:52:37.773Z,16.80
2019-04-29T13:55:17.023Z,16.60
2019-04-29T13:57:38.386Z,16.70
2019-04-29T14:00:12.453Z,16.80
2019-04-29T14:02:59.359Z,16.70
2019-04-29T14:05:32.501Z,16.60
2019-04-29T14:08:00.354Z,17.00
2019-04-29T14:10:29.953Z,17.10
2019-04-29T14:13:09.848Z,17.20
2019-04-29T14:15:33.991Z,17.40
2019-04-29T14:18:01.506Z,17.30
2019-04-29T14:20:31.154Z,17.10
2019-04-29T14:23:00.431Z,16.40
2019-04-29T14:25:29.701Z,16.40
2019-04-29T14:27:59.461Z,16.20
2019-04-29T14:30:38.367Z,16.00
2019-04-29T14:33:02.101Z,16.00
2019-04-29T14:35:36.101Z,16.00
2019-04-29T14:38:05.238Z,15.80
2019-04-29T14:40:39.017Z,15.80
2019-04-29T14:43:31.247Z,15.90
2019-04-29T14:46:05.363Z,15.60
2019-04-29T14:48:42.686Z,15.70
2019-04-29T14:51:12.029Z,15.40
2019-04-29T14:53:55.092Z,15.40
2019-04-29T14:56:15.579Z,15.40
2019-04-29T14:58:43.372Z,15.60
2019-04-29T15:01:14.323Z,15.90
2019-04-29T15:03:51.367Z,15.90
2019-04-29T15:06:20.730Z,16.10
2019-04-29T15:08:50.055Z,16.20
2019-04-29T15:11:31.507Z,16.40
2019-04-29T15:13:59.600Z,16.30
2019-04-29T15:16:36.567Z,16.30
2019-04-29T15:19:12.957Z,16.30
2019-04-29T15:21:43.805Z,16.20
2019-04-29T15:24:11.380Z,16.00
2019-04-29T15:26:40.670Z,16.20
2019-04-29T15:29:09.948Z,16.20
2019-04-29T15:31:42.441Z,16.20
2019-04-29T15:34:14.156Z,15.80
2019-04-29T15:36:42.027Z,15.80
2019-04-29T15:39:12.379Z,15.70
2019-04-29T15:41:42.206Z,15.60
2019-04-29T15:44:18.827Z,15.40
2019-04-29T15:46:46.677Z,15.60
2019-04-29T15:49:13.617Z,15.70
2019-04-29T15:51:44.038Z,15.80
2019-04-29T15:54:14.577Z,15.90
2019-04-29T15:56:45.081Z,15.50
2019-04-29T15:59:14.447Z,15.40
2019-04-29T16:01:44.113Z,15.30
2019-04-29T16:04:15.123Z,15.10
2019-04-29T16:06:48.767Z,15.00
2019-04-29T16:09:51.021Z,14.90
2019-04-29T16:12:14.504Z,14.80
2019-04-29T16:14:41.281Z,14.70
2019-04-29T16:17:10.553Z,14.60
2019-04-29T16:19:39.835Z,14.40
2019-04-29T16:22:13.016Z,14.40
2019-04-29T16:24:40.117Z,14.30
2019-04-29T16:27:10.503Z,14.20
2019-04-29T16:29:39.868Z,14.20
2019-04-29T16:32:10.837Z,14.30
2019-04-29T16:34:45.119Z,14.40
2019-04-29T16:37:11.116Z,14.40
2019-04-29T16:39:40.464Z,14.40
2019-04-29T16:42:14.201Z,14.10
2019-04-29T16:44:44.828Z,14.00
2019-04-29T16:47:15.674Z,13.90
2019-04-29T16:49:45.184Z,13.80
2019-04-29T16:52:14.461Z,13.80
2019-04-29T16:54:43.733Z,13.60
2019-04-29T16:57:13.180Z,13.50
2019-04-29T16:59:42.533Z,13.50
2019-04-29T17:02:18.952Z,13.40
2019-04-29T17:04:42.821Z,13.30
2019-04-29T17:07:14.001Z,13.30
2019-04-29T17:09:45.061Z,13.30
2019-04-29T17:12:14.400Z,13.30
2019-04-29T17:17:16.639Z,13.00
2019-04-29T17:19:45.920Z,13.00
2019-04-29T17:22:25.472Z,12.90
2019-04-29T17:24:46.880Z,12.60
2019-04-29T17:27:20.686Z,12.40
2019-04-29T17:30:03.748Z,12.30
2019-04-29T17:32:44.037Z,12.40
2019-04-29T17:35:09.009Z,12.40
2019-04-29T17:35:19.043Z,13.10
2019-04-29T17:37:38.492Z,12.40
2019-04-29T17:40:11.022Z,12.30
2019-04-29T17:42:41.937Z,12.30
2019-04-29T17:45:27.062Z,12.20
2019-04-29T17:47:51.882Z,12.10
2019-04-29T17:50:29.932Z,12.10
2019-04-29T17:52:53.822Z,12.00
2019-04-29T17:55:38.116Z,12.00
2019-04-29T17:58:21.140Z,12.00
2019-04-29T18:01:01.161Z,11.90
2019-04-29T18:03:42.704Z,11.70
2019-04-29T18:06:17.251Z,11.60
2019-04-29T18:09:02.582Z,11.50
2019-04-29T18:11:31.856Z,11.50
2019-04-29T18:14:01.131Z,11.40
2019-04-29T18:16:32.044Z,11.40
2019-04-29T18:19:02.958Z,11.30
2019-04-29T18:21:49.962Z,11.30
2019-04-29T18:24:25.243Z,11.20
2019-04-29T18:26:58.900Z,11.20
2019-04-29T18:29:28.174Z,11.10
2019-04-29T18:32:00.492Z,11.10
2019-04-29T18:34:29.309Z,11.10
2019-04-29T18:37:00.447Z,11.10
2019-04-29T18:39:31.685Z,11.10
2019-04-29T18:42:03.345Z,11.00
2019-04-29T18:44:32.090Z,10.90
2019-04-29T18:47:01.369Z,10.90
2019-04-29T18:49:30.636Z,10.90
2019-04-29T18:52:02.307Z,10.90
2019-04-29T18:54:30.912Z,10.80
2019-04-29T18:57:00.187Z,10.80
2019-04-29T18:59:33.453Z,10.70
2019-04-29T19:05:05.307Z,10.50
2019-04-29T19:10:49.874Z,10.40
2019-04-29T19:16:31.756Z,10.30
2019-04-29T19:19:02.010Z,10.30
2019-04-29T19:21:31.698Z,10.30
2019-04-29T19:24:01.013Z,10.30
2019-04-29T19:26:30.293Z,10.20
2019-04-29T19:29:01.285Z,10.20
2019-04-29T19:31:30.829Z,10.10
2019-04-29T19:34:00.461Z,10.10
2019-04-29T19:36:29.706Z,10.10
2019-04-29T19:38:58.973Z,10.00
2019-04-29T19:41:28.542Z,10.00
2019-04-29T19:43:58.151Z,10.00
2019-04-29T19:46:36.729Z,9.90
2019-04-29T19:49:07.511Z,10.00
2019-04-29T19:51:30.092Z,9.90
2019-04-29T19:53:59.351Z,9.90
2019-04-29T19:56:28.979Z,9.90
2019-04-29T19:59:03.133Z,9.90
2019-04-29T20:01:32.213Z,9.90
2019-04-29T20:04:22.248Z,9.70
2019-04-29T20:06:50.768Z,9.70
2019-04-29T20:09:23.597Z,9.70
2019-04-29T20:11:55.511Z,9.70
2019-04-29T20:14:27.836Z,9.70
2019-04-29T20:17:09.859Z,9.70
2019-04-29T20:19:42.374Z,9.70
2019-04-29T20:22:12.266Z,9.60
2019-04-29T20:24:41.724Z,9.60
2019-04-29T20:27:11.270Z,9.60
2019-04-29T20:29:40.762Z,9.50
2019-04-29T20:32:10.304Z,9.50
2019-04-29T20:34:39.808Z,9.40
2019-04-29T20:37:10.781Z,9.40
2019-04-29T20:39:40.345Z,9.40
2019-04-29T20:42:10.609Z,9.40
2019-04-29T20:44:44.763Z,9.40
2019-04-29T20:47:22.733Z,9.40
2019-04-29T20:49:42.275Z,9.40
2019-04-29T20:52:18.350Z,9.50
2019-04-29T20:54:45.217Z,9.40
2019-04-29T20:57:20.643Z,9.40
2019-04-29T20:59:50.148Z,9.50
2019-04-29T21:02:29.439Z,9.40
2019-04-29T21:04:48.511Z,9.40
2019-04-29T21:07:23.818Z,9.40
2019-04-29T21:09:48.914Z,9.40
2019-04-29T21:12:20.654Z,9.40
2019-04-29T21:14:51.716Z,9.40
2019-04-29T21:17:31.218Z,9.40
2019-04-29T21:19:51.997Z,9.40
2019-04-29T21:22:23.638Z,9.40
2019-04-29T21:24:53.815Z,9.40
2019-04-29T21:27:24.150Z,9.50
2019-04-29T21:29:55.407Z,9.50
2019-04-29T21:32:25.814Z,9.50
2019-04-29T21:35:16.916Z,9.60
2019-04-29T21:37:48.656Z,9.60
2019-04-29T21:40:28.664Z,9.60
2019-04-29T21:42:59.596Z,9.60
2019-04-29T21:45:28.853Z,9.60
2019-04-29T21:47:58.128Z,9.60
2019-04-29T21:50:33.891Z,9.60
2019-04-29T21:53:02.022Z,9.60
2019-04-29T21:55:29.640Z,9.60
2019-04-29T21:58:00.175Z,9.50
2019-04-29T22:00:29.603Z,9.50
2019-04-29T22:02:59.224Z,9.50
2019-04-29T22:05:28.825Z,9.50
2019-04-29T22:07:58.176Z,9.50
2019-04-29T22:10:29.076Z,9.40
2019-04-29T22:13:02.100Z,9.50
2019-04-29T22:15:33.199Z,9.50
2019-04-29T22:18:01.799Z,9.50
2019-04-29T22:20:35.673Z,9.50
2019-04-29T22:23:08.413Z,9.40
2019-04-29T22:25:36.518Z,9.40
2019-04-29T22:28:06.249Z,9.40
2019-04-29T22:30:35.858Z,9.30
2019-04-29T22:33:05.469Z,9.30
2019-04-29T22:35:37.196Z,9.30
2019-04-29T22:38:07.816Z,9.30
2019-04-29T22:40:40.908Z,9.30
2019-04-29T22:43:19.100Z,9.30
2019-04-29T22:45:48.658Z,9.30
2019-04-29T22:48:19.815Z,9.40
2019-04-29T22:50:49.518Z,9.50
2019-04-29T22:53:18.788Z,9.50
2019-04-29T22:55:48.318Z,9.50
2019-04-29T22:58:17.933Z,9.50
2019-04-29T23:00:47.534Z,9.50
2019-04-29T23:03:17.142Z,9.60
2019-04-29T23:05:46.751Z,9.60
2019-04-29T23:08:16.023Z,9.60
2019-04-29T23:10:45.689Z,9.50
2019-04-29T23:13:15.162Z,9.40
2019-04-29T23:15:45.566Z,9.50
2019-04-29T23:18:24.311Z,9.40
2019-04-29T23:20:47.882Z,9.40
2019-04-29T23:23:18.788Z,9.40
2019-04-29T23:25:52.932Z,9.40
2019-04-29T23:28:26.890Z,9.30
2019-04-29T23:30:54.398Z,9.20
2019-04-29T23:33:25.926Z,9.30
2019-04-29T23:35:56.046Z,9.30
2019-04-29T23:38:25.785Z,9.30
2019-04-29T23:40:56.433Z,9.30
2019-04-29T23:43:28.366Z,9.40
2019-04-29T23:46:00.566Z,9.50
2019-04-29T23:48:38.834Z,9.40
2019-04-29T23:50:59.113Z,9.50
2019-04-29T23:53:28.650Z,9.50
2019-04-29T23:56:00.124Z,9.40
2019-04-29T23:58:40.253Z,9.40
